Time;durP1;ratioP1;P1;durP2;ratioP2;P2;SDS_P1;SDS_P2;PMS_P1;PMS_P2;Temp;Humidity;BMP_temperature;BMP_pressure;BME280_temperature;BME280_humidity;BME280_pressure;Samples;Min_cycle;Max_cycle;Signal;HPM_P1;HPM_P2
2023/04/06 00:01:02;;;;;;;9.73;6.20;;;;;;;;;;4978800;28;20018;-75
2023/04/06 00:03:28;;;;;;;10.48;7.18;;;;;;;;;;4981961;28;20033;-74
2023/04/06 00:05:55;;;;;;;10.60;6.63;;;;;;;;;;4976252;28;20027;-76
2023/04/06 00:08:23;;;;;;;10.23;6.55;;;;;;;;;;4985072;28;20026;-75
2023/04/06 00:10:49;;;;;;;11.73;7.13;;;;;;;;;;4973903;28;20030;-76
2023/04/06 00:13:15;;;;;;;13.82;6.60;;;;;;;;;;4982473;28;20030;-75
2023/04/06 00:15:41;;;;;;;13.23;7.13;;;;;;;;;;4980815;28;20045;-74
2023/04/06 00:18:07;;;;;;;11.48;7.03;;;;;;;;;;4988554;28;20027;-75
2023/04/06 00:20:33;;;;;;;12.43;6.70;;;;;;;;;;4972978;28;20019;-75
2023/04/06 00:22:59;;;;;;;11.65;6.05;;;;;;;;;;4966445;28;20022;-74
2023/04/06 00:25:26;;;;;;;11.57;6.75;;;;;;;;;;4978659;28;20492;-73
2023/04/06 00:27:52;;;;;;;10.45;6.45;;;;;;;;;;4988219;28;20026;-72
2023/04/06 00:30:18;;;;;;;11.18;7.18;;;;;;;;;;4973002;28;20152;-72
2023/04/06 00:32:44;;;;;;;9.10;6.50;;;;;;;;;;4985410;28;20125;-71
2023/04/06 00:35:10;;;;;;;13.05;8.50;;;;;;;;;;4976283;28;20053;-74
2023/04/06 00:37:36;;;;;;;13.55;7.97;;;;;;;;;;4977731;28;20027;-73
2023/04/06 00:40:03;;;;;;;11.02;6.82;;;;;;;;;;4983453;28;20031;-74
2023/04/06 00:42:29;;;;;;;12.10;6.90;;;;;;;;;;4972541;28;20118;-75
2023/04/06 00:44:56;;;;;;;12.30;7.15;;;;;;;;;;4983921;28;20026;-73
2023/04/06 00:47:22;;;;;;;10.77;7.03;;;;;;;;;;4977432;28;20049;-73
2023/04/06 00:49:48;;;;;;;11.52;5.53;;;;;;;;;;4988731;28;20050;-74
2023/04/06 00:52:15;;;;;;;9.30;6.30;;;;;;;;;;4973114;28;20108;-75
2023/04/06 00:54:41;;;;;;;11.68;5.95;;;;;;;;;;4988206;28;20046;-72
2023/04/06 00:57:07;;;;;;;9.57;6.03;;;;;;;;;;4977426;28;20019;-73
2023/04/06 00:59:33;;;;;;;9.75;5.38;;;;;;;;;;4982516;28;20024;-75
2023/04/06 01:01:59;;;;;;;8.27;5.80;;;;;;;;;;4984106;28;20492;-76
2023/04/06 01:04:25;;;;;;;10.50;6.07;;;;;;;;;;4972557;28;20037;-73
2023/04/06 01:06:51;;;;;;;14.43;6.13;;;;;;;;;;4983963;28;20011;-74
2023/04/06 01:09:17;;;;;;;11.82;5.95;;;;;;;;;;4976436;28;20071;-73
2023/04/06 01:11:44;;;;;;;8.93;5.95;;;;;;;;;;4980662;28;20104;-74
2023/04/06 01:14:10;;;;;;;10.52;5.60;;;;;;;;;;4988491;28;20022;-76
2023/04/06 01:16:36;;;;;;;8.88;5.50;;;;;;;;;;4985989;28;20031;-74
2023/04/06 01:19:07;;;;;;;8.75;5.72;;;;;;;;;;4976846;28;20481;-75
2023/04/06 01:21:33;;;;;;;10.85;5.32;;;;;;;;;;4974509;28;20026;-73
2023/04/06 01:23:59;;;;;;;12.15;5.75;;;;;;;;;;4978282;28;20027;-74
2023/04/06 01:26:26;;;;;;;9.65;5.35;;;;;;;;;;4989433;28;20030;-74
2023/04/06 01:28:52;;;;;;;10.77;5.82;;;;;;;;;;4987625;28;20434;-74
2023/04/06 01:31:18;;;;;;;11.07;5.70;;;;;;;;;;4981319;28;20051;-73
2023/04/06 01:33:45;;;;;;;7.95;4.82;;;;;;;;;;4981500;28;20113;-74
2023/04/06 01:36:11;;;;;;;7.55;5.35;;;;;;;;;;4980704;28;20160;-74
2023/04/06 01:38:37;;;;;;;10.48;5.35;;;;;;;;;;4982602;28;20475;-74
2023/04/06 01:41:03;;;;;;;8.55;5.50;;;;;;;;;;4991620;28;20373;-74
2023/04/06 01:43:29;;;;;;;9.00;5.20;;;;;;;;;;4982160;28;20023;-74
2023/04/06 01:45:55;;;;;;;10.05;5.95;;;;;;;;;;4985525;28;20045;-75
2023/04/06 01:48:21;;;;;;;10.60;5.85;;;;;;;;;;4990721;28;20048;-75
2023/04/06 01:50:47;;;;;;;11.90;5.88;;;;;;;;;;4976191;28;20046;-74
2023/04/06 01:53:14;;;;;;;14.35;5.25;;;;;;;;;;4970316;28;20076;-75
2023/04/06 01:55:40;;;;;;;8.82;5.35;;;;;;;;;;4974622;28;20038;-75
2023/04/06 01:58:06;;;;;;;7.40;5.10;;;;;;;;;;4984020;28;20021;-75
2023/04/06 02:00:32;;;;;;;9.70;4.88;;;;;;;;;;4990825;28;20098;-75
2023/04/06 02:02:58;;;;;;;9.40;5.47;;;;;;;;;;4991037;28;20019;-75
2023/04/06 02:05:24;;;;;;;9.07;5.40;;;;;;;;;;4983059;28;20034;-75
2023/04/06 02:07:51;;;;;;;10.00;5.65;;;;;;;;;;4983973;28;20027;-76
2023/04/06 02:10:17;;;;;;;9.55;5.15;;;;;;;;;;4982788;28;20030;-76
2023/04/06 02:12:43;;;;;;;11.77;5.32;;;;;;;;;;4979643;28;20030;-75
2023/04/06 02:15:09;;;;;;;9.43;5.20;;;;;;;;;;4984600;28;20026;-77
2023/04/06 02:17:36;;;;;;;9.50;5.85;;;;;;;;;;4978895;28;20023;-74
2023/04/06 02:20:02;;;;;;;7.65;4.70;;;;;;;;;;4985534;28;20030;-76
2023/04/06 02:22:28;;;;;;;8.98;5.10;;;;;;;;;;4989285;28;20023;-76
2023/04/06 02:24:54;;;;;;;9.18;4.85;;;;;;;;;;4986894;28;20030;-76
2023/04/06 02:27:20;;;;;;;7.28;4.50;;;;;;;;;;4989863;28;20084;-75
2023/04/06 02:29:46;;;;;;;8.35;4.97;;;;;;;;;;4989617;28;20034;-76
2023/04/06 02:32:12;;;;;;;7.32;4.60;;;;;;;;;;4985149;28;20029;-76
2023/04/06 02:34:38;;;;;;;8.63;4.38;;;;;;;;;;4987889;28;20034;-78
2023/04/06 02:37:04;;;;;;;6.25;4.68;;;;;;;;;;4984133;28;20027;-76
2023/04/06 02:39:30;;;;;;;7.63;4.63;;;;;;;;;;4980697;28;20026;-77
2023/04/06 02:41:57;;;;;;;9.15;4.55;;;;;;;;;;4990249;28;20022;-76
2023/04/06 02:44:23;;;;;;;9.00;4.95;;;;;;;;;;4973528;28;20393;-73
2023/04/06 02:46:50;;;;;;;6.90;4.85;;;;;;;;;;4967756;28;20080;-74
2023/04/06 02:49:16;;;;;;;9.52;5.28;;;;;;;;;;4978085;28;20029;-74
2023/04/06 02:51:42;;;;;;;7.50;4.35;;;;;;;;;;4990345;28;20023;-74
2023/04/06 02:54:08;;;;;;;8.90;5.10;;;;;;;;;;4976141;28;20046;-74
2023/04/06 02:56:34;;;;;;;7.60;4.40;;;;;;;;;;4956890;28;20031;-74
2023/04/06 02:59:00;;;;;;;12.23;5.50;;;;;;;;;;4989938;28;20098;-75
2023/04/06 03:01:27;;;;;;;8.23;5.30;;;;;;;;;;4990645;28;20046;-74
2023/04/06 03:03:53;;;;;;;7.72;4.95;;;;;;;;;;4978016;28;20019;-76
2023/04/06 03:06:19;;;;;;;11.02;5.47;;;;;;;;;;4969824;28;20109;-77
2023/04/06 03:08:45;;;;;;;6.65;4.93;;;;;;;;;;4985933;28;20027;-75
2023/04/06 03:11:11;;;;;;;6.38;4.57;;;;;;;;;;4977289;28;20021;-75
2023/04/06 03:13:41;;;;;;;10.50;5.07;;;;;;;;;;4964058;28;20034;-72
2023/04/06 03:16:07;;;;;;;8.23;4.80;;;;;;;;;;4975473;28;20062;-73
2023/04/06 03:18:33;;;;;;;7.47;5.20;;;;;;;;;;4988023;28;20026;-73
2023/04/06 03:21:00;;;;;;;13.95;5.90;;;;;;;;;;4984936;28;20098;-73
2023/04/06 03:23:26;;;;;;;10.07;5.00;;;;;;;;;;4979678;28;20040;-75
2023/04/06 03:25:52;;;;;;;9.25;5.22;;;;;;;;;;4989823;28;20035;-73
2023/04/06 03:28:18;;;;;;;6.18;4.65;;;;;;;;;;4955651;28;20031;-76
2023/04/06 03:30:44;;;;;;;8.65;4.93;;;;;;;;;;4973530;28;20022;-74
2023/04/06 03:33:10;;;;;;;8.68;4.97;;;;;;;;;;4983042;28;20019;-73
2023/04/06 03:35:36;;;;;;;7.43;5.10;;;;;;;;;;4980461;28;20034;-73
2023/04/06 03:38:03;;;;;;;11.07;5.05;;;;;;;;;;4974852;28;20015;-73
2023/04/06 03:40:29;;;;;;;9.68;5.50;;;;;;;;;;4968274;28;20132;-75
2023/04/06 03:42:55;;;;;;;8.18;4.82;;;;;;;;;;4975164;28;20027;-74
2023/04/06 03:45:21;;;;;;;9.10;4.78;;;;;;;;;;4989441;28;20026;-74
2023/04/06 03:47:47;;;;;;;7.38;4.47;;;;;;;;;;4977110;28;20027;-74
2023/04/06 03:50:13;;;;;;;11.45;5.63;;;;;;;;;;4985533;28;20105;-74
2023/04/06 03:52:39;;;;;;;9.65;4.85;;;;;;;;;;4986581;28;20458;-75
2023/04/06 03:55:05;;;;;;;8.52;5.22;;;;;;;;;;4958633;28;20036;-74
2023/04/06 03:57:31;;;;;;;8.60;5.00;;;;;;;;;;4978971;28;20144;-74
2023/04/06 03:59:58;;;;;;;9.55;6.13;;;;;;;;;;5039435;28;20017;-73
2023/04/06 04:02:24;;;;;;;5.72;4.25;;;;;;;;;;4999379;28;20036;-73
2023/04/06 04:04:50;;;;;;;9.05;4.82;;;;;;;;;;4974748;28;20029;-74
2023/04/06 04:07:16;;;;;;;6.05;4.45;;;;;;;;;;4988608;28;20105;-79
2023/04/06 04:09:42;;;;;;;8.52;5.03;;;;;;;;;;4978325;28;20410;-74
2023/04/06 04:12:08;;;;;;;10.50;5.10;;;;;;;;;;4984556;28;20106;-74
2023/04/06 04:14:34;;;;;;;7.55;4.93;;;;;;;;;;4973307;28;20055;-74
2023/04/06 04:17:00;;;;;;;13.25;5.10;;;;;;;;;;4989295;28;20447;-73
2023/04/06 04:19:26;;;;;;;9.00;4.72;;;;;;;;;;4981353;28;20473;-75
2023/04/06 04:21:52;;;;;;;10.88;5.07;;;;;;;;;;4993867;28;20037;-73
2023/04/06 04:24:18;;;;;;;6.57;4.78;;;;;;;;;;4999524;28;20026;-77
2023/04/06 04:26:44;;;;;;;9.07;5.00;;;;;;;;;;4982153;28;20022;-73
2023/04/06 04:29:10;;;;;;;11.30;5.22;;;;;;;;;;4989453;28;20022;-75
2023/04/06 04:31:36;;;;;;;12.38;5.90;;;;;;;;;;4978743;28;20026;-74
2023/04/06 04:34:03;;;;;;;13.82;5.40;;;;;;;;;;4979594;28;20079;-74
2023/04/06 04:36:29;;;;;;;9.93;5.35;;;;;;;;;;4987469;28;20027;-78
2023/04/06 04:38:55;;;;;;;14.88;6.53;;;;;;;;;;4976571;28;20091;-76
2023/04/06 04:41:21;;;;;;;9.43;5.65;;;;;;;;;;4950910;28;20027;-76
2023/04/06 04:43:47;;;;;;;7.05;4.93;;;;;;;;;;4974661;28;20023;-76
2023/04/06 04:46:13;;;;;;;8.85;5.10;;;;;;;;;;4969390;28;20081;-76
2023/04/06 04:48:39;;;;;;;7.22;5.13;;;;;;;;;;4984585;28;20041;-76
2023/04/06 04:51:05;;;;;;;11.95;6.07;;;;;;;;;;4975979;28;20040;-75
2023/04/06 04:53:31;;;;;;;9.15;4.68;;;;;;;;;;4987877;28;20057;-77
2023/04/06 04:55:57;;;;;;;7.38;4.88;;;;;;;;;;4975373;28;20489;-77
2023/04/06 04:58:24;;;;;;;12.27;6.18;;;;;;;;;;4984709;28;20125;-74
2023/04/06 05:00:50;;;;;;;15.88;7.20;;;;;;;;;;4973731;28;20106;-77
2023/04/06 05:03:20;;;;;;;14.73;7.43;;;;;;;;;;4988896;28;20097;-78
2023/04/06 05:05:46;;;;;;;9.38;5.07;;;;;;;;;;4977148;28;20134;-77
2023/04/06 05:08:12;;;;;;;11.27;6.10;;;;;;;;;;4983739;28;20057;-75
2023/04/06 05:10:39;;;;;;;11.88;7.57;;;;;;;;;;4983438;28;20125;-76
2023/04/06 05:13:05;;;;;;;9.15;4.93;;;;;;;;;;4982400;28;20015;-74
2023/04/06 05:15:31;;;;;;;8.60;4.72;;;;;;;;;;4979050;28;20037;-74
2023/04/06 05:17:57;;;;;;;7.05;4.03;;;;;;;;;;4987922;28;20027;-74
2023/04/06 05:20:23;;;;;;;10.45;4.53;;;;;;;;;;4972513;28;20023;-74
2023/04/06 05:22:49;;;;;;;8.23;4.55;;;;;;;;;;4984434;28;20080;-74
2023/04/06 05:25:15;;;;;;;7.35;4.28;;;;;;;;;;4976107;28;20034;-73
2023/04/06 05:27:42;;;;;;;6.60;4.07;;;;;;;;;;4987772;28;20034;-73
2023/04/06 05:30:08;;;;;;;6.75;4.18;;;;;;;;;;4988143;28;20510;-73
2023/04/06 05:32:35;;;;;;;9.60;3.97;;;;;;;;;;4971949;28;20031;-74
2023/04/06 05:35:01;;;;;;;9.48;3.92;;;;;;;;;;4985395;28;20033;-76
2023/04/06 05:37:27;;;;;;;7.07;3.83;;;;;;;;;;4987440;28;20555;-74
2023/04/06 05:39:53;;;;;;;8.60;4.78;;;;;;;;;;4975579;28;20099;-76
2023/04/06 05:42:19;;;;;;;7.07;4.60;;;;;;;;;;4985187;28;20094;-76
2023/04/06 05:44:45;;;;;;;7.63;4.50;;;;;;;;;;4984145;28;20038;-74
2023/04/06 05:47:11;;;;;;;7.38;3.72;;;;;;;;;;4969311;28;20019;-76
2023/04/06 05:49:37;;;;;;;9.82;4.28;;;;;;;;;;4979399;28;20026;-74
2023/04/06 05:52:04;;;;;;;7.53;4.32;;;;;;;;;;4977240;28;20399;-75
2023/04/06 05:54:30;;;;;;;7.75;3.95;;;;;;;;;;4972004;28;20056;-75
2023/04/06 05:56:56;;;;;;;11.60;4.53;;;;;;;;;;4978476;28;20072;-75
2023/04/06 05:59:23;;;;;;;9.23;4.45;;;;;;;;;;4976549;28;20097;-75
2023/04/06 06:01:49;;;;;;;8.85;4.38;;;;;;;;;;4988053;28;20027;-73
2023/04/06 06:04:15;;;;;;;6.45;3.78;;;;;;;;;;4973602;28;20409;-74
2023/04/06 06:06:41;;;;;;;13.90;4.93;;;;;;;;;;4982082;28;20456;-73
2023/04/06 06:09:07;;;;;;;8.38;4.25;;;;;;;;;;4978969;28;20492;-74
2023/04/06 06:11:33;;;;;;;11.32;4.40;;;;;;;;;;4977164;28;20477;-74
2023/04/06 06:13:59;;;;;;;10.38;4.53;;;;;;;;;;4985249;28;20109;-72
2023/04/06 06:16:25;;;;;;;11.52;4.80;;;;;;;;;;4974623;28;20031;-73
2023/04/06 06:18:51;;;;;;;10.63;4.53;;;;;;;;;;4985523;28;20026;-74
2023/04/06 06:21:17;;;;;;;8.75;4.65;;;;;;;;;;4979393;28;20030;-74
2023/04/06 06:23:44;;;;;;;11.40;4.97;;;;;;;;;;4990710;28;20026;-74
2023/04/06 06:26:10;;;;;;;7.20;4.50;;;;;;;;;;4975987;28;20035;-72
2023/04/06 06:28:36;;;;;;;6.22;4.25;;;;;;;;;;4986585;28;20510;-76
2023/04/06 06:31:02;;;;;;;6.85;4.32;;;;;;;;;;4977162;28;20030;-75
2023/04/06 06:33:28;;;;;;;11.65;4.65;;;;;;;;;;4990793;28;20029;-75
2023/04/06 06:35:54;;;;;;;8.07;4.57;;;;;;;;;;4987457;28;20034;-72
2023/04/06 06:38:20;;;;;;;10.90;4.63;;;;;;;;;;4973688;28;20499;-75
2023/04/06 06:40:47;;;;;;;6.95;4.20;;;;;;;;;;4986798;28;20023;-74
2023/04/06 06:43:13;;;;;;;7.78;4.95;;;;;;;;;;4978019;28;20011;-75
2023/04/06 06:45:39;;;;;;;6.85;4.43;;;;;;;;;;4990600;28;20030;-76
2023/04/06 06:48:05;;;;;;;10.45;4.30;;;;;;;;;;4975135;28;20038;-76
2023/04/06 06:50:31;;;;;;;9.25;4.40;;;;;;;;;;4988486;28;20126;-74
2023/04/06 06:52:57;;;;;;;9.20;4.53;;;;;;;;;;4984806;28;20029;-73
2023/04/06 06:55:23;;;;;;;6.60;4.40;;;;;;;;;;4979224;28;20403;-74
2023/04/06 06:57:49;;;;;;;7.03;4.75;;;;;;;;;;4989452;28;20023;-74
2023/04/06 07:00:15;;;;;;;8.60;4.70;;;;;;;;;;4974350;28;20493;-76
2023/04/06 07:02:42;;;;;;;9.25;5.28;;;;;;;;;;4990081;28;20018;-73
2023/04/06 07:05:08;;;;;;;7.53;4.80;;;;;;;;;;4983327;28;20457;-74
2023/04/06 07:07:34;;;;;;;8.30;4.80;;;;;;;;;;4980460;28;20030;-73
2023/04/06 07:10:00;;;;;;;11.73;4.70;;;;;;;;;;4990304;28;20449;-73
2023/04/06 07:12:26;;;;;;;6.93;4.50;;;;;;;;;;4974468;28;20042;-74
2023/04/06 07:14:52;;;;;;;8.52;4.78;;;;;;;;;;4985175;28;20027;-74
2023/04/06 07:17:19;;;;;;;8.20;4.35;;;;;;;;;;4977591;28;20018;-73
2023/04/06 07:19:45;;;;;;;13.02;5.00;;;;;;;;;;4990134;28;20109;-73
2023/04/06 07:22:12;;;;;;;7.40;4.80;;;;;;;;;;4990245;28;20042;-74
2023/04/06 07:24:38;;;;;;;9.55;5.13;;;;;;;;;;4973528;28;20027;-77
2023/04/06 07:27:04;;;;;;;6.63;4.43;;;;;;;;;;4983271;28;20113;-73
2023/04/06 07:29:30;;;;;;;11.95;4.63;;;;;;;;;;4979970;28;20042;-77
2023/04/06 07:31:56;;;;;;;10.43;5.50;;;;;;;;;;4990147;28;20030;-74
2023/04/06 07:34:22;;;;;;;9.45;5.00;;;;;;;;;;4989567;28;20022;-77
2023/04/06 07:36:48;;;;;;;9.52;4.70;;;;;;;;;;4983423;28;20041;-74
2023/04/06 07:39:15;;;;;;;9.32;4.70;;;;;;;;;;4977152;28;20545;-74
2023/04/06 07:41:41;;;;;;;11.20;4.78;;;;;;;;;;4978671;28;20034;-74
2023/04/06 07:44:07;;;;;;;8.05;5.03;;;;;;;;;;4984787;28;20101;-72
2023/04/06 07:46:33;;;;;;;9.25;5.47;;;;;;;;;;4988009;28;20056;-75
2023/04/06 07:49:03;;;;;;;8.77;6.32;;;;;;;;;;4974670;28;20026;-74
2023/04/06 07:51:30;;;;;;;8.98;5.53;;;;;;;;;;4989861;28;20022;-73
2023/04/06 07:53:56;;;;;;;8.93;5.53;;;;;;;;;;4976534;28;20378;-75
2023/04/06 07:56:22;;;;;;;8.98;5.63;;;;;;;;;;4986601;28;20074;-75
2023/04/06 07:58:49;;;;;;;11.32;5.95;;;;;;;;;;4984234;28;20022;-75
2023/04/06 08:01:15;;;;;;;8.55;4.95;;;;;;;;;;4977706;28;20526;-74
2023/04/06 08:03:41;;;;;;;9.27;4.93;;;;;;;;;;4989688;28;20061;-74
2023/04/06 08:06:07;;;;;;;6.95;4.80;;;;;;;;;;4977214;28;20050;-75
2023/04/06 08:08:33;;;;;;;7.80;4.35;;;;;;;;;;4985641;28;20456;-74
2023/04/06 08:11:02;;;;;;;9.73;5.05;;;;;;;;;;4979641;28;20105;-76
2023/04/06 08:13:28;;;;;;;9.43;4.60;;;;;;;;;;4980771;28;20023;-73
2023/04/06 08:16:01;;;;;;;7.90;4.30;;;;;;;;;;4982559;28;20114;-74
2023/04/06 08:18:28;;;;;;;8.23;4.70;;;;;;;;;;4987223;28;20163;-76
2023/04/06 08:20:55;;;;;;;8.77;4.72;;;;;;;;;;4974181;28;20025;-74
2023/04/06 08:23:21;;;;;;;11.57;5.13;;;;;;;;;;4988469;28;20042;-74
2023/04/06 08:25:47;;;;;;;9.02;4.63;;;;;;;;;;4976314;28;20696;-74
2023/04/06 08:28:13;;;;;;;8.32;4.80;;;;;;;;;;4983244;28;20550;-74
2023/04/06 08:30:43;;;;;;;7.15;4.88;;;;;;;;;;4985881;28;20435;-71
2023/04/06 08:33:09;;;;;;;8.95;5.30;;;;;;;;;;4976944;28;20026;-74
2023/04/06 08:35:36;;;;;;;15.07;5.22;;;;;;;;;;4980330;28;20026;-74
2023/04/06 08:38:02;;;;;;;8.80;4.90;;;;;;;;;;4981092;28;20026;-74
2023/04/06 08:40:28;;;;;;;7.10;4.78;;;;;;;;;;4970675;28;20019;-73
2023/04/06 08:42:59;;;;;;;6.00;4.78;;;;;;;;;;4982118;28;20540;-73
2023/04/06 08:45:25;;;;;;;13.55;4.72;;;;;;;;;;4976480;28;20026;-73
2023/04/06 08:47:55;;;;;;;8.43;5.22;;;;;;;;;;4986158;28;20023;-72
2023/04/06 08:50:21;;;;;;;8.85;4.90;;;;;;;;;;4970923;28;20514;-73
2023/04/06 08:52:49;;;;;;;8.45;4.60;;;;;;;;;;4984124;28;20047;-73
2023/04/06 08:55:15;;;;;;;8.00;4.45;;;;;;;;;;4976675;28;20043;-74
2023/04/06 08:57:42;;;;;;;8.55;4.38;;;;;;;;;;4970629;28;20026;-73
2023/04/06 09:00:10;;;;;;;7.32;4.28;;;;;;;;;;4973734;28;20165;-74
2023/04/06 09:02:39;;;;;;;8.43;4.85;;;;;;;;;;4987310;28;20026;-72
2023/04/06 09:05:05;;;;;;;6.68;4.53;;;;;;;;;;4982182;28;20030;-73
2023/04/06 09:07:31;;;;;;;5.57;3.83;;;;;;;;;;4960574;28;20067;-73
2023/04/06 09:09:57;;;;;;;6.57;4.18;;;;;;;;;;4988332;28;20038;-73
2023/04/06 09:12:27;;;;;;;5.88;4.20;;;;;;;;;;4972076;28;20038;-73
2023/04/06 09:14:53;;;;;;;9.07;4.38;;;;;;;;;;4983375;28;20033;-74
2023/04/06 09:17:22;;;;;;;6.05;4.40;;;;;;;;;;4976070;28;20101;-74
2023/04/06 09:19:49;;;;;;;8.10;4.00;;;;;;;;;;4970694;28;20026;-73
2023/04/06 09:22:15;;;;;;;10.07;4.35;;;;;;;;;;4972519;28;20023;-73
2023/04/06 09:24:44;;;;;;;6.72;4.35;;;;;;;;;;4987289;28;20025;-75
2023/04/06 09:27:11;;;;;;;10.85;4.45;;;;;;;;;;4980398;28;20485;-73
2023/04/06 09:29:37;;;;;;;6.90;4.15;;;;;;;;;;4979148;28;20531;-74
2023/04/06 09:32:06;;;;;;;5.97;3.58;;;;;;;;;;4988071;28;20026;-74
2023/04/06 09:34:33;;;;;;;4.88;3.78;;;;;;;;;;4971917;28;20023;-73
2023/04/06 09:37:02;;;;;;;7.60;4.00;;;;;;;;;;4974192;28;20488;-74
2023/04/06 09:39:28;;;;;;;6.97;3.90;;;;;;;;;;4980310;28;20027;-73
2023/04/06 09:41:55;;;;;;;5.50;3.45;;;;;;;;;;4967581;28;20027;-76
2023/04/06 09:44:23;;;;;;;5.13;3.47;;;;;;;;;;4991316;28;20658;-73
2023/04/06 09:46:49;;;;;;;4.18;3.38;;;;;;;;;;4976397;28;20038;-75
2023/04/06 09:49:15;;;;;;;6.15;3.88;;;;;;;;;;4990982;28;20034;-73
2023/04/06 09:51:41;;;;;;;5.22;3.70;;;;;;;;;;4980111;28;20110;-74
2023/04/06 09:54:08;;;;;;;3.50;3.20;;;;;;;;;;4986485;28;20101;-73
2023/04/06 09:56:40;;;;;;;6.85;4.07;;;;;;;;;;4990838;28;20030;-73
2023/04/06 09:59:09;;;;;;;4.57;3.10;;;;;;;;;;4983041;28;20023;-74
2023/04/06 10:01:36;;;;;;;6.18;3.88;;;;;;;;;;4997625;28;20029;-73
2023/04/06 10:04:17;;;;;;;7.70;4.07;;;;;;;;;;4967590;28;20106;-74
2023/04/06 10:06:45;;;;;;;8.40;3.92;;;;;;;;;;4987949;28;20019;-73
2023/04/06 10:09:13;;;;;;;5.55;3.75;;;;;;;;;;4978282;28;20018;-74
2023/04/06 10:11:40;;;;;;;10.00;4.00;;;;;;;;;;4991058;28;20515;-73
2023/04/06 10:14:06;;;;;;;4.88;3.45;;;;;;;;;;4976464;28;20039;-72
2023/04/06 10:16:32;;;;;;;4.95;3.80;;;;;;;;;;4988991;28;20046;-75
2023/04/06 10:19:05;;;;;;;5.40;3.60;;;;;;;;;;4984574;28;20019;-72
2023/04/06 10:21:32;;;;;;;5.28;3.40;;;;;;;;;;4981404;28;20077;-73
2023/04/06 10:24:00;;;;;;;5.68;3.65;;;;;;;;;;4991051;28;20484;-74
2023/04/06 10:26:26;;;;;;;4.80;3.67;;;;;;;;;;4974627;28;20489;-73
2023/04/06 10:28:53;;;;;;;8.55;4.03;;;;;;;;;;4985793;28;20125;-73
2023/04/06 10:31:27;;;;;;;6.40;3.60;;;;;;;;;;4979948;28;20022;-73
2023/04/06 10:34:00;;;;;;;5.05;3.63;;;;;;;;;;4987462;28;20030;-74
2023/04/06 10:36:28;;;;;;;6.72;3.42;;;;;;;;;;4986684;28;20035;-73
2023/04/06 10:38:57;;;;;;;5.07;3.90;;;;;;;;;;4975110;28;20046;-73
2023/04/06 10:41:23;;;;;;;4.90;3.53;;;;;;;;;;4982466;28;20054;-73
2023/04/06 10:43:58;;;;;;;5.75;3.38;;;;;;;;;;4983385;28;20030;-73
2023/04/06 10:46:29;;;;;;;4.57;3.38;;;;;;;;;;4989662;28;20058;-74
2023/04/06 10:48:55;;;;;;;6.78;3.60;;;;;;;;;;4975578;28;20026;-73
2023/04/06 10:51:29;;;;;;;5.18;3.58;;;;;;;;;;4989494;28;20046;-73
2023/04/06 10:53:55;;;;;;;4.63;3.78;;;;;;;;;;4977591;28;20030;-73
2023/04/06 10:56:23;;;;;;;5.57;4.07;;;;;;;;;;4987271;28;20050;-74
2023/04/06 10:58:53;;;;;;;6.75;3.70;;;;;;;;;;4985321;28;20023;-74
2023/04/06 11:01:21;;;;;;;4.78;3.13;;;;;;;;;;4979212;28;20022;-73
2023/04/06 11:03:48;;;;;;;6.57;3.45;;;;;;;;;;4990048;28;20042;-73
2023/04/06 11:06:24;;;;;;;4.35;3.63;;;;;;;;;;4974616;28;20106;-74
2023/04/06 11:08:54;;;;;;;6.07;3.80;;;;;;;;;;4973921;28;20026;-73
2023/04/06 11:11:20;;;;;;;7.00;3.30;;;;;;;;;;4981632;28;20027;-74
2023/04/06 11:13:47;;;;;;;4.82;3.40;;;;;;;;;;4982404;28;20034;-73
2023/04/06 11:16:14;;;;;;;8.52;4.18;;;;;;;;;;4989742;28;20518;-73
2023/04/06 11:18:57;;;;;;;5.97;3.88;;;;;;;;;;4972930;28;20105;-73
2023/04/06 11:21:36;;;;;;;4.25;3.20;;;;;;;;;;4981181;28;20477;-73
2023/04/06 11:24:11;;;;;;;4.82;3.80;;;;;;;;;;4984578;28;20029;-73
2023/04/06 11:26:40;;;;;;;6.18;3.15;;;;;;;;;;4986844;28;20030;-73
2023/04/06 11:29:07;;;;;;;7.70;3.90;;;;;;;;;;4976419;28;20098;-74
2023/04/06 11:31:38;;;;;;;4.85;3.67;;;;;;;;;;4989761;28;20063;-74
2023/04/06 11:34:09;;;;;;;5.28;4.13;;;;;;;;;;4975617;28;20034;-74
2023/04/06 11:36:36;;;;;;;7.22;3.72;;;;;;;;;;4985670;28;20049;-73
2023/04/06 11:39:03;;;;;;;7.45;4.25;;;;;;;;;;4958553;28;20494;-74
2023/04/06 11:41:30;;;;;;;6.28;4.30;;;;;;;;;;4980148;28;20396;-73
2023/04/06 11:43:56;;;;;;;4.45;3.58;;;;;;;;;;4983296;28;20022;-74
2023/04/06 11:46:22;;;;;;;6.05;4.25;;;;;;;;;;4990378;28;20496;-75
2023/04/06 11:48:48;;;;;;;6.05;3.88;;;;;;;;;;4987535;28;20123;-73
2023/04/06 11:51:23;;;;;;;6.90;3.78;;;;;;;;;;4989462;28;20041;-74
2023/04/06 11:53:49;;;;;;;7.28;3.55;;;;;;;;;;4989387;28;20022;-72
2023/04/06 11:56:29;;;;;;;6.03;3.88;;;;;;;;;;4988802;28;20096;-73
2023/04/06 11:58:56;;;;;;;5.45;3.92;;;;;;;;;;4988298;28;20078;-72
2023/04/06 12:01:22;;;;;;;5.93;3.65;;;;;;;;;;4989599;28;20030;-72
2023/04/06 12:03:48;;;;;;;5.38;3.42;;;;;;;;;;4989685;28;20045;-72
2023/04/06 12:06:14;;;;;;;5.90;3.53;;;;;;;;;;4989579;28;20030;-73
2023/04/06 12:08:40;;;;;;;6.72;3.47;;;;;;;;;;4988895;28;20022;-73
2023/04/06 12:11:06;;;;;;;4.07;3.30;;;;;;;;;;4989842;28;20415;-73
2023/04/06 12:13:33;;;;;;;8.27;3.55;;;;;;;;;;4989552;28;20345;-73
2023/04/06 12:15:59;;;;;;;5.22;3.20;;;;;;;;;;4989893;28;20050;-73
2023/04/06 12:18:25;;;;;;;5.43;3.72;;;;;;;;;;4989616;28;20022;-72
2023/04/06 12:20:51;;;;;;;6.93;3.78;;;;;;;;;;4989646;28;20018;-75
2023/04/06 12:23:17;;;;;;;6.20;3.97;;;;;;;;;;4989845;28;20038;-73
2023/04/06 12:25:44;;;;;;;6.43;4.22;;;;;;;;;;4989490;28;20034;-73
2023/04/06 12:28:10;;;;;;;3.95;3.30;;;;;;;;;;4988352;28;20054;-72
2023/04/06 12:30:36;;;;;;;5.25;3.55;;;;;;;;;;4989543;28;20099;-71
2023/04/06 12:33:02;;;;;;;6.25;3.75;;;;;;;;;;4989525;28;20031;-73
2023/04/06 12:35:28;;;;;;;5.40;3.85;;;;;;;;;;4971780;28;20031;-72
2023/04/06 12:37:54;;;;;;;6.60;3.83;;;;;;;;;;4988218;28;20019;-74
2023/04/06 12:40:20;;;;;;;5.28;3.83;;;;;;;;;;4989106;28;20031;-74
2023/04/06 12:42:47;;;;;;;9.55;3.78;;;;;;;;;;4988903;28;20102;-73
2023/04/06 12:45:13;;;;;;;9.27;4.18;;;;;;;;;;4988824;28;20126;-73
2023/04/06 12:47:39;;;;;;;6.35;3.75;;;;;;;;;;4988099;28;20027;-71
2023/04/06 12:50:06;;;;;;;8.05;5.60;;;;;;;;;;4988955;28;20480;-70
2023/04/06 12:52:34;;;;;;;9.65;3.85;;;;;;;;;;4989026;28;20427;-72
2023/04/06 12:55:01;;;;;;;5.43;3.85;;;;;;;;;;4988694;28;20026;-75
2023/04/06 12:57:27;;;;;;;9.77;4.07;;;;;;;;;;4987787;28;20030;-73
2023/04/06 12:59:53;;;;;;;7.50;4.00;;;;;;;;;;4988996;28;20031;-72
2023/04/06 13:02:22;;;;;;;6.00;3.92;;;;;;;;;;4988746;28;20030;-73
2023/04/06 13:04:51;;;;;;;8.70;4.32;;;;;;;;;;4988753;28;20049;-73
2023/04/06 13:07:18;;;;;;;6.10;3.97;;;;;;;;;;4987955;28;20030;-72
2023/04/06 13:09:47;;;;;;;7.45;4.22;;;;;;;;;;4988577;28;20033;-71
2023/04/06 13:12:13;;;;;;;7.35;4.32;;;;;;;;;;4988609;28;20044;-72
2023/04/06 13:14:39;;;;;;;6.88;4.45;;;;;;;;;;4973393;28;20038;-72
2023/04/06 13:17:06;;;;;;;6.50;3.92;;;;;;;;;;4972065;28;20389;-74
2023/04/06 13:19:32;;;;;;;6.85;4.00;;;;;;;;;;4972766;28;20088;-73
2023/04/06 13:21:58;;;;;;;7.45;4.05;;;;;;;;;;4972708;28;20023;-72
2023/04/06 13:24:24;;;;;;;6.90;4.07;;;;;;;;;;4972269;28;20026;-72
2023/04/06 13:26:50;;;;;;;5.93;3.58;;;;;;;;;;4973124;28;20037;-72
2023/04/06 13:29:16;;;;;;;4.97;3.60;;;;;;;;;;4972408;28;20109;-73
2023/04/06 13:31:42;;;;;;;5.97;3.97;;;;;;;;;;4972537;28;20033;-72
2023/04/06 13:34:08;;;;;;;5.25;3.38;;;;;;;;;;4972561;28;20038;-73
2023/04/06 13:36:35;;;;;;;6.80;4.13;;;;;;;;;;4972359;28;20426;-74
2023/04/06 13:39:01;;;;;;;6.10;3.97;;;;;;;;;;4971822;28;20044;-72
2023/04/06 13:41:27;;;;;;;6.22;3.88;;;;;;;;;;4972390;28;20034;-72
2023/04/06 13:43:53;;;;;;;5.30;3.70;;;;;;;;;;4972668;28;20027;-72
2023/04/06 13:46:19;;;;;;;10.05;4.05;;;;;;;;;;4972390;28;20033;-73
2023/04/06 13:48:46;;;;;;;8.70;4.43;;;;;;;;;;4971735;28;20031;-74
2023/04/06 13:51:13;;;;;;;6.68;4.20;;;;;;;;;;4972791;28;20053;-72
2023/04/06 13:53:39;;;;;;;5.78;3.50;;;;;;;;;;4972343;28;20388;-73
2023/04/06 13:56:06;;;;;;;7.90;3.63;;;;;;;;;;4971966;28;20035;-73
2023/04/06 13:58:32;;;;;;;4.65;3.60;;;;;;;;;;4971629;28;20019;-73
2023/04/06 14:01:06;;;;;;;6.40;4.03;;;;;;;;;;4979522;28;20022;-72
2023/04/06 14:03:32;;;;;;;4.53;3.53;;;;;;;;;;4991593;28;20492;-73
2023/04/06 14:05:58;;;;;;;6.85;4.40;;;;;;;;;;4990870;28;20030;-74
2023/04/06 14:08:24;;;;;;;8.65;4.38;;;;;;;;;;4989171;28;20026;-72
2023/04/06 14:10:50;;;;;;;7.90;4.10;;;;;;;;;;4989452;28;20083;-73
2023/04/06 14:13:17;;;;;;;4.18;3.45;;;;;;;;;;4989784;28;20030;-72
2023/04/06 14:15:43;;;;;;;5.22;3.55;;;;;;;;;;4988396;28;20472;-74
2023/04/06 14:18:09;;;;;;;6.90;4.07;;;;;;;;;;4969373;28;20027;-73
2023/04/06 14:20:35;;;;;;;7.07;4.18;;;;;;;;;;4969819;28;20046;-73
2023/04/06 14:23:01;;;;;;;5.75;3.53;;;;;;;;;;4971710;28;20112;-73
2023/04/06 14:25:28;;;;;;;4.90;3.75;;;;;;;;;;4971453;28;20117;-72
2023/04/06 14:27:54;;;;;;;5.28;3.47;;;;;;;;;;4970965;28;20092;-72
2023/04/06 14:30:20;;;;;;;5.82;3.90;;;;;;;;;;4971818;28;20031;-72
2023/04/06 14:32:46;;;;;;;5.05;4.03;;;;;;;;;;4971959;28;20080;-71
2023/04/06 14:35:12;;;;;;;5.68;3.40;;;;;;;;;;4971449;28;20861;-72
2023/04/06 14:37:38;;;;;;;5.78;3.83;;;;;;;;;;4970757;28;20392;-73